Time;durP1;ratioP1;P1;durP2;ratioP2;P2;SDS_P1;SDS_P2;PMS_P1;PMS_P2;Temp;Humidity;BMP_temperature;BMP_pressure;BME280_temperature;BME280_humidity;BME280_pressure;Samples;Min_cycle;Max_cycle;Signal;HPM_P1;HPM_P2
2021/09/20 00:00:17;;;;;;;8.87;7.20;;;;;;;;;;5106676;27;20528;-85
2021/09/20 00:03:21;;;;;;;8.53;7.40;;;;;;;;;;5102184;27;20197;-85
2021/09/20 00:06:25;;;;;;;8.57;7.67;;;;;;;;;;5098523;27;20189;-84
2021/09/20 00:09:29;;;;;;;8.43;7.23;;;;;;;;;;5110434;27;20659;-84
2021/09/20 00:12:34;;;;;;;10.43;8.13;;;;;;;;;;5089707;28;20206;-85
2021/09/20 00:15:38;;;;;;;9.80;8.80;;;;;;;;;;5092645;28;20202;-84
2021/09/20 00:18:43;;;;;;;9.37;8.37;;;;;;;;;;5073159;28;20541;-85
2021/09/20 00:21:47;;;;;;;10.97;8.43;;;;;;;;;;5083988;28;20218;-85
2021/09/20 00:24:51;;;;;;;12.20;8.63;;;;;;;;;;5069400;28;20195;-84
2021/09/20 00:27:55;;;;;;;13.53;8.23;;;;;;;;;;5072565;28;20226;-85
2021/09/20 00:30:59;;;;;;;9.97;8.23;;;;;;;;;;5072770;28;20207;-84
2021/09/20 00:34:03;;;;;;;10.93;8.80;;;;;;;;;;5060703;28;20190;-86
2021/09/20 00:37:07;;;;;;;9.63;7.93;;;;;;;;;;5091623;27;20225;-85
2021/09/20 00:40:11;;;;;;;14.20;8.60;;;;;;;;;;5096538;27;20181;-84
2021/09/20 00:43:16;;;;;;;9.20;8.10;;;;;;;;;;5113121;27;20536;-84
2021/09/20 00:46:20;;;;;;;12.17;9.10;;;;;;;;;;5100602;27;20201;-85
2021/09/20 00:49:24;;;;;;;9.67;8.43;;;;;;;;;;5084395;27;20196;-85
2021/09/20 00:52:35;;;;;;;10.70;9.00;;;;;;;;;;5114850;27;20185;-85
2021/09/20 00:55:40;;;;;;;11.87;8.60;;;;;;;;;;5112774;27;20193;-84
2021/09/20 00:58:45;;;;;;;10.60;8.90;;;;;;;;;;5100035;27;20712;-85
2021/09/20 01:01:50;;;;;;;10.73;8.73;;;;;;;;;;5112869;27;20197;-84
2021/09/20 01:04:55;;;;;;;11.87;9.17;;;;;;;;;;5112536;27;20181;-84
2021/09/20 01:07:59;;;;;;;10.90;8.97;;;;;;;;;;5099920;27;20221;-84
2021/09/20 01:11:03;;;;;;;12.97;8.60;;;;;;;;;;5083460;28;20182;-84
2021/09/20 01:14:07;;;;;;;11.13;9.20;;;;;;;;;;5060491;28;20174;-84
2021/09/20 01:17:11;;;;;;;12.90;8.97;;;;;;;;;;5066850;28;20210;-85
2021/09/20 01:20:16;;;;;;;11.30;9.57;;;;;;;;;;5103534;28;20652;-84
2021/09/20 01:23:20;;;;;;;10.90;8.90;;;;;;;;;;5121093;27;20209;-84
2021/09/20 01:26:24;;;;;;;12.80;8.97;;;;;;;;;;5112272;27;20182;-85
2021/09/20 01:29:29;;;;;;;11.60;9.47;;;;;;;;;;5071805;28;20183;-87
2021/09/20 01:32:33;;;;;;;12.60;9.17;;;;;;;;;;5076461;28;20187;-85
2021/09/20 01:35:37;;;;;;;11.40;9.60;;;;;;;;;;5070232;28;20534;-84
2021/09/20 01:38:41;;;;;;;15.43;9.97;;;;;;;;;;5083180;28;20229;-84
2021/09/20 01:41:47;;;;;;;12.07;9.40;;;;;;;;;;5071189;28;20183;-85
2021/09/20 01:44:51;;;;;;;10.57;8.73;;;;;;;;;;5094003;27;20201;-85
2021/09/20 01:47:55;;;;;;;12.67;10.13;;;;;;;;;;5075407;28;20222;-84
2021/09/20 01:51:00;;;;;;;11.53;8.80;;;;;;;;;;5078405;28;20202;-84
2021/09/20 01:54:05;;;;;;;16.43;9.40;;;;;;;;;;5082391;28;20634;-85
2021/09/20 01:57:09;;;;;;;11.67;8.87;;;;;;;;;;5099488;27;20225;-84
2021/09/20 02:00:16;;;;;;;14.03;10.23;;;;;;;;;;5068716;28;20191;-84
2021/09/20 02:03:20;;;;;;;11.53;9.67;;;;;;;;;;5082424;28;20209;-85
2021/09/20 02:06:25;;;;;;;13.00;9.83;;;;;;;;;;5085545;27;20869;-85
2021/09/20 02:09:29;;;;;;;13.57;10.47;;;;;;;;;;5082178;28;20190;-85
2021/09/20 02:12:33;;;;;;;12.90;9.90;;;;;;;;;;5083268;28;20194;-84
2021/09/20 02:15:38;;;;;;;12.27;10.37;;;;;;;;;;5059448;28;20207;-85
2021/09/20 02:18:42;;;;;;;12.03;10.10;;;;;;;;;;5070905;28;20241;-84
2021/09/20 02:21:46;;;;;;;11.07;9.40;;;;;;;;;;5070394;28;20189;-84
2021/09/20 02:24:50;;;;;;;13.90;10.13;;;;;;;;;;5092635;27;20533;-84
2021/09/20 02:27:55;;;;;;;12.53;10.23;;;;;;;;;;5093529;27;20583;-85
2021/09/20 02:30:59;;;;;;;12.30;10.03;;;;;;;;;;5122931;27;20188;-85
2021/09/20 02:34:03;;;;;;;14.00;9.87;;;;;;;;;;5098775;27;20192;-85
2021/09/20 02:37:07;;;;;;;12.00;9.00;;;;;;;;;;5093812;28;20221;-84
2021/09/20 02:40:12;;;;;;;13.27;9.77;;;;;;;;;;5090606;28;20505;-84
2021/09/20 02:43:16;;;;;;;14.60;10.33;;;;;;;;;;5078575;28;20221;-84
2021/09/20 02:46:20;;;;;;;12.80;9.63;;;;;;;;;;5095194;28;20189;-84
2021/09/20 02:49:24;;;;;;;11.53;9.93;;;;;;;;;;5109991;28;20642;-85
2021/09/20 02:52:29;;;;;;;10.83;9.67;;;;;;;;;;5079242;28;20182;-85
2021/09/20 02:55:33;;;;;;;13.60;10.33;;;;;;;;;;5078838;28;20185;-84
2021/09/20 02:58:37;;;;;;;11.17;9.70;;;;;;;;;;5098416;23;20233;-89
2021/09/20 03:01:41;;;;;;;11.83;9.63;;;;;;;;;;5078424;28;20182;-89
2021/09/20 03:04:46;;;;;;;13.10;9.80;;;;;;;;;;5078181;28;20182;-87
2021/09/20 03:07:50;;;;;;;11.10;9.10;;;;;;;;;;5069585;28;20194;-89
2021/09/20 03:10:54;;;;;;;13.27;9.47;;;;;;;;;;5076945;28;20197;-84
2021/09/20 03:13:58;;;;;;;11.40;9.53;;;;;;;;;;5079622;28;20174;-84
2021/09/20 03:17:03;;;;;;;14.63;9.43;;;;;;;;;;5079124;28;20194;-85
2021/09/20 03:20:07;;;;;;;10.43;8.90;;;;;;;;;;5079140;28;20197;-84
2021/09/20 03:23:12;;;;;;;14.77;9.53;;;;;;;;;;5089800;28;20206;-86
2021/09/20 03:26:16;;;;;;;11.50;9.20;;;;;;;;;;5089478;28;20186;-85
2021/09/20 03:29:20;;;;;;;13.00;9.20;;;;;;;;;;5089542;28;20222;-86
2021/09/20 03:32:24;;;;;;;10.60;9.23;;;;;;;;;;5089846;28;20193;-86
2021/09/20 03:35:29;;;;;;;11.33;9.00;;;;;;;;;;5089368;28;20194;-89
2021/09/20 03:38:32;;;;;;;11.90;9.57;;;;;;;;;;5057930;28;20551;-89
2021/09/20 03:41:36;;;;;;;10.40;9.20;;;;;;;;;;5059281;28;20183;-90
2021/09/20 03:44:40;;;;;;;11.80;9.50;;;;;;;;;;5089501;28;20210;-89
2021/09/20 03:47:45;;;;;;;12.70;8.90;;;;;;;;;;5089064;28;20190;-88
2021/09/20 03:50:49;;;;;;;11.57;9.33;;;;;;;;;;5089698;28;20628;-87
2021/09/20 03:53:53;;;;;;;10.27;8.60;;;;;;;;;;5088409;28;20636;-89
2021/09/20 03:56:57;;;;;;;11.27;8.87;;;;;;;;;;5077637;28;20205;-89
2021/09/20 04:00:03;;;;;;;12.83;9.77;;;;;;;;;;5081705;28;20182;-89
2021/09/20 04:03:10;;;;;;;13.73;9.53;;;;;;;;;;5072945;28;20683;-86
2021/09/20 04:06:14;;;;;;;11.27;8.87;;;;;;;;;;5061340;28;20182;-87
2021/09/20 04:09:19;;;;;;;15.00;9.73;;;;;;;;;;5063899;28;20226;-87
2021/09/20 04:12:23;;;;;;;12.53;9.53;;;;;;;;;;5081206;28;20205;-89
2021/09/20 04:15:27;;;;;;;11.60;9.07;;;;;;;;;;5105694;28;20194;-84
2021/09/20 04:18:31;;;;;;;12.27;9.30;;;;;;;;;;5063115;28;20581;-89
2021/09/20 04:21:35;;;;;;;13.37;8.90;;;;;;;;;;5065815;28;20189;-89
2021/09/20 04:24:43;;;;;;;12.07;9.20;;;;;;;;;;5080661;28;20210;-90
2021/09/20 04:27:51;;;;;;;11.27;9.33;;;;;;;;;;5092784;28;20178;-87
2021/09/20 04:30:55;;;;;;;14.20;10.27;;;;;;;;;;5080920;28;20174;-87
2021/09/20 04:33:59;;;;;;;13.13;10.37;;;;;;;;;;5072414;28;20640;-89
2021/09/20 04:37:04;;;;;;;11.80;10.13;;;;;;;;;;5083415;28;20189;-87
2021/09/20 04:40:09;;;;;;;11.87;9.90;;;;;;;;;;5073915;28;20567;-87
2021/09/20 04:43:13;;;;;;;12.37;9.17;;;;;;;;;;5091750;28;20209;-90
2021/09/20 04:46:17;;;;;;;13.00;9.50;;;;;;;;;;5089117;28;20201;-88
2021/09/20 04:49:21;;;;;;;12.90;9.70;;;;;;;;;;5103374;28;20553;-90
2021/09/20 04:52:25;;;;;;;12.67;9.37;;;;;;;;;;5103847;28;20174;-90
2021/09/20 04:55:29;;;;;;;17.10;10.23;;;;;;;;;;5091744;28;20178;-90
2021/09/20 04:58:34;;;;;;;21.17;11.23;;;;;;;;;;5103371;28;20714;-90
2021/09/20 05:01:38;;;;;;;15.97;10.57;;;;;;;;;;5103621;28;20193;-88
2021/09/20 05:04:43;;;;;;;14.43;10.50;;;;;;;;;;5091459;28;20209;-87
2021/09/20 05:07:47;;;;;;;14.00;9.97;;;;;;;;;;5103339;28;20201;-90
2021/09/20 05:10:51;;;;;;;15.27;11.07;;;;;;;;;;5080535;28;20185;-88
2021/09/20 05:13:55;;;;;;;13.33;10.07;;;;;;;;;;5094354;28;20181;-90
2021/09/20 05:16:59;;;;;;;16.47;10.90;;;;;;;;;;5091671;28;20189;-90
2021/09/20 05:20:05;;;;;;;11.47;9.40;;;;;;;;;;5103367;28;20189;-89
2021/09/20 05:23:09;;;;;;;11.47;9.70;;;;;;;;;;5080343;28;20170;-90
2021/09/20 05:26:14;;;;;;;14.80;9.87;;;;;;;;;;5103333;28;20182;-90
2021/09/20 05:29:18;;;;;;;14.03;10.60;;;;;;;;;;5079953;28;20218;-90
2021/09/20 05:32:22;;;;;;;15.10;10.47;;;;;;;;;;5091291;28;20189;-90
2021/09/20 05:35:27;;;;;;;12.20;10.90;;;;;;;;;;5091241;28;20181;-90
2021/09/20 05:38:31;;;;;;;23.60;11.60;;;;;;;;;;5090924;28;20228;-90
2021/09/20 05:41:36;;;;;;;21.67;11.20;;;;;;;;;;5079561;28;20671;-90
2021/09/20 05:44:40;;;;;;;16.10;11.37;;;;;;;;;;5079285;28;20225;-90
2021/09/20 05:47:44;;;;;;;15.33;11.30;;;;;;;;;;5090992;28;20212;-90
2021/09/20 05:50:48;;;;;;;14.03;11.33;;;;;;;;;;5090923;28;20189;-90
2021/09/20 05:53:52;;;;;;;16.07;11.37;;;;;;;;;;5090854;28;20205;-89
2021/09/20 05:56:56;;;;;;;14.17;10.90;;;;;;;;;;5090739;28;20560;-89
2021/09/20 06:00:01;;;;;;;13.13;10.17;;;;;;;;;;5070560;28;20237;-89
2021/09/20 06:03:14;;;;;;;27.83;12.27;;;;;;;;;;5071876;28;20197;-89
2021/09/20 06:06:18;;;;;;;13.40;11.17;;;;;;;;;;5058957;28;20209;-89
2021/09/20 06:09:23;;;;;;;20.47;12.13;;;;;;;;;;5058651;28;20584;-89
2021/09/20 06:12:27;;;;;;;14.60;11.47;;;;;;;;;;5059268;28;20205;-89
2021/09/20 06:15:31;;;;;;;14.57;11.33;;;;;;;;;;5070468;28;20178;-89
2021/09/20 06:18:35;;;;;;;14.00;11.10;;;;;;;;;;5070083;28;20222;-89
2021/09/20 06:21:39;;;;;;;20.07;12.20;;;;;;;;;;5093018;28;20197;-88
2021/09/20 06:24:43;;;;;;;13.77;11.43;;;;;;;;;;5081623;28;20214;-90
2021/09/20 06:27:47;;;;;;;12.97;10.17;;;;;;;;;;5059305;28;20537;-88
2021/09/20 06:30:52;;;;;;;14.27;10.87;;;;;;;;;;5058816;28;20182;-89
2021/09/20 06:33:56;;;;;;;13.30;10.67;;;;;;;;;;5081851;28;20181;-87
2021/09/20 06:37:01;;;;;;;16.73;11.20;;;;;;;;;;5060285;28;20201;-90
2021/09/20 06:40:08;;;;;;;14.90;11.17;;;;;;;;;;5038731;28;20187;-91
2021/09/20 06:43:12;;;;;;;18.37;12.20;;;;;;;;;;5038771;28;20186;-91
2021/09/20 06:46:16;;;;;;;15.20;11.50;;;;;;;;;;5049785;28;20649;-91
2021/09/20 06:49:21;;;;;;;17.00;11.83;;;;;;;;;;5069690;28;20229;-91
2021/09/20 06:52:26;;;;;;;15.10;11.70;;;;;;;;;;5058705;28;20189;-91
2021/09/20 06:55:30;;;;;;;15.10;12.33;;;;;;;;;;5058543;28;20182;-91
2021/09/20 06:58:35;;;;;;;15.93;13.00;;;;;;;;;;5058519;28;20229;-91
2021/09/20 07:01:39;;;;;;;15.33;12.33;;;;;;;;;;5069886;28;20541;-91
2021/09/20 07:04:44;;;;;;;15.47;11.83;;;;;;;;;;5069678;28;20210;-91
2021/09/20 07:07:48;;;;;;;15.50;11.90;;;;;;;;;;5069834;28;20190;-91
2021/09/20 07:10:52;;;;;;;18.53;12.40;;;;;;;;;;5069900;28;20533;-91
2021/09/20 07:13:57;;;;;;;19.00;11.87;;;;;;;;;;5081094;28;20201;-90
2021/09/20 07:17:01;;;;;;;12.13;10.53;;;;;;;;;;5057878;28;20190;-91
2021/09/20 07:20:06;;;;;;;16.20;11.67;;;;;;;;;;5058047;28;20186;-91
2021/09/20 07:23:11;;;;;;;13.40;11.43;;;;;;;;;;5069721;28;20198;-90
2021/09/20 07:26:16;;;;;;;14.03;12.03;;;;;;;;;;5058206;28;20186;-90
2021/09/20 07:29:20;;;;;;;16.67;11.87;;;;;;;;;;5058647;28;20221;-90
2021/09/20 07:32:25;;;;;;;16.70;11.40;;;;;;;;;;5069781;28;20211;-91
2021/09/20 07:35:29;;;;;;;14.53;12.10;;;;;;;;;;5084860;28;20189;-91
2021/09/20 07:38:34;;;;;;;20.33;12.87;;;;;;;;;;5073056;28;20229;-90
2021/09/20 07:41:38;;;;;;;14.17;12.23;;;;;;;;;;5084809;28;20221;-91
2021/09/20 07:44:42;;;;;;;15.17;11.57;;;;;;;;;;5054330;28;20223;-91
2021/09/20 07:47:47;;;;;;;16.17;12.70;;;;;;;;;;5041700;28;20649;-91
2021/09/20 07:50:51;;;;;;;16.60;12.30;;;;;;;;;;5041655;28;20613;-91
2021/09/20 07:53:55;;;;;;;17.47;12.07;;;;;;;;;;5041786;28;20202;-91
2021/09/20 07:56:59;;;;;;;15.17;10.70;;;;;;;;;;5041467;28;20179;-91
2021/09/20 08:00:06;;;;;;;16.20;11.37;;;;;;;;;;5052924;28;20179;-90
2021/09/20 08:03:11;;;;;;;16.03;12.17;;;;;;;;;;5041376;28;20206;-92
2021/09/20 08:06:17;;;;;;;16.93;10.03;;;;;;;;;;5050592;28;20198;-89
2021/09/20 08:09:21;;;;;;;11.70;9.47;;;;;;;;;;5072719;28;20221;-92
2021/09/20 08:12:25;;;;;;;9.33;8.20;;;;;;;;;;5061354;28;20190;-92
2021/09/20 08:15:30;;;;;;;10.13;8.67;;;;;;;;;;5061383;28;20519;-92
2021/09/20 08:18:34;;;;;;;8.67;7.43;;;;;;;;;;5061108;28;20210;-92
2021/09/20 08:21:38;;;;;;;10.87;8.93;;;;;;;;;;5072503;28;20175;-92
2021/09/20 08:24:42;;;;;;;8.70;7.77;;;;;;;;;;5061129;28;20542;-89
2021/09/20 08:27:57;;;;;;;8.63;6.83;;;;;;;;;;5072800;28;20183;-91
2021/09/20 08:31:02;;;;;;;10.90;7.00;;;;;;;;;;5072475;28;20187;-91
2021/09/20 08:34:06;;;;;;;9.23;7.00;;;;;;;;;;5041117;28;20179;-91
2021/09/20 08:37:10;;;;;;;9.13;7.07;;;;;;;;;;5040918;28;20179;-91
2021/09/20 08:40:17;;;;;;;11.43;8.30;;;;;;;;;;5040986;28;20179;-91
2021/09/20 08:43:47;;;;;;;12.83;9.50;;;;;;;;;;5040450;28;20614;-91
2021/09/20 08:46:53;;;;;;;13.07;11.10;;;;;;;;;;5069173;28;20191;-91
2021/09/20 08:49:58;;;;;;;16.00;11.10;;;;;;;;;;5060850;28;20217;-92
2021/09/20 08:53:04;;;;;;;14.90;11.63;;;;;;;;;;5060431;28;20209;-92
2021/09/20 08:56:09;;;;;;;14.13;11.10;;;;;;;;;;5060544;28;20197;-89
2021/09/20 08:59:13;;;;;;;23.40;12.80;;;;;;;;;;5059726;28;20232;-91
2021/09/20 09:02:18;;;;;;;18.97;13.00;;;;;;;;;;5060343;28;20190;-91
2021/09/20 09:05:27;;;;;;;18.43;12.43;;;;;;;;;;5060668;28;20676;-91
2021/09/20 09:08:40;;;;;;;17.60;12.33;;;;;;;;;;5071675;28;20221;-91
2021/09/20 09:11:45;;;;;;;22.70;12.77;;;;;;;;;;5060127;28;20656;-91
2021/09/20 09:14:52;;;;;;;15.20;12.20;;;;;;;;;;5071598;28;20202;-90
2021/09/20 09:17:57;;;;;;;20.77;12.80;;;;;;;;;;5071034;28;20218;-91
2021/09/20 09:21:18;;;;;;;13.30;10.80;;;;;;;;;;5071446;28;20211;-91
2021/09/20 09:24:24;;;;;;;20.60;11.03;;;;;;;;;;5071688;28;20194;-91
2021/09/20 09:27:30;;;;;;;12.40;9.67;;;;;;;;;;5060174;28;20182;-91
2021/09/20 09:30:43;;;;;;;11.80;9.37;;;;;;;;;;5060009;28;20179;-91
2021/09/20 09:33:47;;;;;;;15.70;9.30;;;;;;;;;;5059880;28;20187;-91
2021/09/20 09:37:05;;;;;;;25.43;10.87;;;;;;;;;;5070957;28;20293;-92
2021/09/20 09:40:21;;;;;;;13.00;9.07;;;;;;;;;;5071068;28;20194;-90
2021/09/20 09:43:33;;;;;;;10.67;8.83;;;;;;;;;;5059378;28;20191;-90
2021/09/20 09:46:43;;;;;;;16.53;9.03;;;;;;;;;;5059251;28;20661;-90
2021/09/20 09:49:47;;;;;;;12.87;9.00;;;;;;;;;;5071038;28;20226;-90
2021/09/20 09:52:55;;;;;;;14.27;9.83;;;;;;;;;;5059612;28;20178;-90
2021/09/20 09:56:18;;;;;;;36.13;9.47;;;;;;;;;;5070120;28;20551;-90
2021/09/20 09:59:26;;;;;;;11.70;9.00;;;;;;;;;;5058957;28;20226;-90
2021/09/20 10:02:36;;;;;;;13.73;9.10;;;;;;;;;;5059762;28;20638;-90
2021/09/20 10:06:07;;;;;;;11.20;8.63;;;;;;;;;;5031557;28;20753;-90
2021/09/20 10:09:27;;;;;;;12.63;7.73;;;;;;;;;;5081536;28;20218;-91
2021/09/20 10:12:51;;;;;;;9.67;6.77;;;;;;;;;;5048534;28;20191;-90
2021/09/20 10:16:22;;;;;;;9.83;7.47;;;;;;;;;;5076650;28;20171;-90
2021/09/20 10:19:27;;;;;;;12.53;7.13;;;;;;;;;;5058907;28;20214;-90
2021/09/20 10:22:31;;;;;;;19.10;7.20;;;;;;;;;;5059006;28;20621;-90
2021/09/20 10:25:37;;;;;;;9.23;5.97;;;;;;;;;;5058642;28;20668;-91
2021/09/20 10:28:48;;;;;;;7.83;6.43;;;;;;;;;;5070619;28;20215;-92
2021/09/20 10:31:53;;;;;;;9.73;5.90;;;;;;;;;;5053536;23;20698;-84
2021/09/20 10:35:34;;;;;;;21.03;7.80;;;;;;;;;;5022976;28;20185;-85
2021/09/20 10:38:50;;;;;;;11.57;6.43;;;;;;;;;;5011249;28;20184;-83
2021/09/20 10:41:54;;;;;;;8.83;5.83;;;;;;;;;;5022429;28;20204;-84
2021/09/20 10:44:58;;;;;;;16.93;6.47;;;;;;;;;;5024709;28;20216;-86
2021/09/20 10:48:22;;;;;;;24.97;10.83;;;;;;;;;;5025075;28;20184;-86
2021/09/20 10:51:31;;;;;;;26.67;12.50;;;;;;;;;;5010758;28;20228;-86
2021/09/20 10:54:36;;;;;;;30.97;15.17;;;;;;;;;;4999546;28;20195;-86
2021/09/20 10:57:40;;;;;;;17.87;9.37;;;;;;;;;;5021492;28;20188;-86
2021/09/20 11:00:44;;;;;;;14.77;8.47;;;;;;;;;;4999696;28;20211;-86
2021/09/20 11:03:58;;;;;;;15.63;9.03;;;;;;;;;;4998988;28;20192;-86
2021/09/20 11:07:15;;;;;;;11.77;7.63;;;;;;;;;;5011278;28;20216;-86
2021/09/20 11:10:34;;;;;;;8.87;6.07;;;;;;;;;;5025739;28;20212;-86
2021/09/20 11:14:01;;;;;;;21.60;6.53;;;;;;;;;;5020785;28;20207;-87
2021/09/20 11:17:24;;;;;;;9.67;5.93;;;;;;;;;;5020761;28;20187;-85
2021/09/20 11:20:38;;;;;;;5.53;4.60;;;;;;;;;;5012362;28;20224;-86
2021/09/20 11:23:44;;;;;;;6.60;4.50;;;;;;;;;;5012184;28;20197;-85
2021/09/20 11:26:48;;;;;;;5.53;4.17;;;;;;;;;;5006464;28;20212;-87
2021/09/20 11:30:14;;;;;;;5.90;3.63;;;;;;;;;;5000539;28;20177;-86
2021/09/20 11:33:18;;;;;;;5.83;3.60;;;;;;;;;;5006655;28;20181;-85
2021/09/20 11:36:26;;;;;;;6.03;4.03;;;;;;;;;;5039700;28;20184;-86
2021/09/20 11:39:48;;;;;;;8.47;3.80;;;;;;;;;;5032155;28;20176;-84
2021/09/20 11:42:55;;;;;;;6.03;4.23;;;;;;;;;;5025470;28;20197;-84
2021/09/20 11:45:59;;;;;;;10.03;4.00;;;;;;;;;;5025196;28;20205;-85
2021/09/20 11:49:10;;;;;;;6.03;3.97;;;;;;;;;;5025771;28;20632;-85
2021/09/20 11:52:14;;;;;;;4.83;3.87;;;;;;;;;;5024796;28;20556;-85
2021/09/20 11:55:40;;;;;;;5.43;4.00;;;;;;;;;;5045872;28;20180;-85
2021/09/20 11:58:53;;;;;;;4.53;3.40;;;;;;;;;;5033143;28;20196;-84
2021/09/20 12:01:58;;;;;;;4.47;3.80;;;;;;;;;;5015324;28;20564;-85
2021/09/20 12:05:04;;;;;;;5.43;3.90;;;;;;;;;;5026072;28;20193;-85
2021/09/20 12:08:15;;;;;;;6.57;4.37;;;;;;;;;;5003801;28;20552;-85
2021/09/20 12:11:23;;;;;;;5.13;4.63;;;;;;;;;;5003434;28;20220;-85
2021/09/20 12:14:27;;;;;;;18.33;5.53;;;;;;;;;;5028318;28;20189;-85
2021/09/20 12:17:51;;;;;;;5.27;4.13;;;;;;;;;;5018209;28;20185;-85
2021/09/20 12:21:02;;;;;;;7.67;4.47;;;;;;;;;;5033912;28;20682;-85
2021/09/20 12:24:06;;;;;;;5.90;4.23;;;;;;;;;;5034089;28;20189;-85
2021/09/20 12:27:10;;;;;;;7.67;4.20;;;;;;;;;;5026412;28;20221;-85
2021/09/20 12:30:21;;;;;;;5.40;4.10;;;;;;;;;;5025014;28;20240;-85
2021/09/20 12:33:26;;;;;;;8.77;4.47;;;;;;;;;;5014394;28;20192;-85
2021/09/20 12:36:35;;;;;;;7.60;4.30;;;;;;;;;;5012898;28;20643;-85
2021/09/20 12:39:40;;;;;;;6.63;4.37;;;;;;;;;;5026256;28;20200;-85
2021/09/20 12:43:13;;;;;;;22.03;4.83;;;;;;;;;;5033261;28;20184;-85
2021/09/20 12:46:21;;;;;;;9.23;5.80;;;;;;;;;;5032571;28;20216;-84
2021/09/20 12:49:26;;;;;;;11.60;4.83;;;;;;;;;;5013564;28;20200;-85
2021/09/20 12:52:33;;;;;;;9.20;6.60;;;;;;;;;;5032952;28;20196;-85
2021/09/20 12:55:40;;;;;;;5.57;4.77;;;;;;;;;;5024816;28;20181;-85
2021/09/20 12:58:47;;;;;;;5.07;4.47;;;;;;;;;;5025102;28;20181;-85
2021/09/20 13:01:54;;;;;;;6.87;4.77;;;;;;;;;;5032203;28;20233;-86
2021/09/20 13:04:59;;;;;;;6.70;5.67;;;;;;;;;;5017916;28;20188;-85
2021/09/20 13:08:04;;;;;;;6.87;4.97;;;;;;;;;;5014590;28;20192;-84
2021/09/20 13:11:14;;;;;;;5.93;5.33;;;;;;;;;;5013793;28;20220;-85
2021/09/20 13:14:24;;;;;;;9.30;5.27;;;;;;;;;;5025009;28;20636;-84
2021/09/20 13:17:31;;;;;;;27.97;5.67;;;;;;;;;;5025257;28;20173;-84
2021/09/20 13:20:35;;;;;;;5.90;5.07;;;;;;;;;;5013863;28;20679;-84
2021/09/20 13:23:40;;;;;;;23.07;5.50;;;;;;;;;;5024956;28;20196;-85
2021/09/20 13:26:44;;;;;;;10.20;4.60;;;;;;;;;;5024976;28;20220;-85
2021/09/20 13:29:48;;;;;;;6.00;5.40;;;;;;;;;;5024422;28;20200;-85
2021/09/20 13:32:52;;;;;;;5.40;4.50;;;;;;;;;;5024257;28;20200;-84
2021/09/20 13:36:03;;;;;;;12.40;5.53;;;;;;;;;;5013479;28;20200;-84
2021/09/20 13:39:08;;;;;;;6.80;4.97;;;;;;;;;;5029839;28;20192;-84
2021/09/20 13:42:12;;;;;;;13.07;5.40;;;;;;;;;;5033015;28;20212;-84
2021/09/20 13:45:17;;;;;;;9.80;5.60;;;;;;;;;;5043796;28;20192;-85
2021/09/20 13:48:23;;;;;;;36.90;7.33;;;;;;;;;;5029512;28;20185;-85
2021/09/20 13:51:27;;;;;;;9.37;5.27;;;;;;;;;;5023682;28;20557;-84
2021/09/20 13:54:31;;;;;;;6.73;4.57;;;;;;;;;;5023936;28;20185;-85
2021/09/20 13:57:35;;;;;;;7.40;4.70;;;;;;;;;;5012044;28;20177;-84
2021/09/20 14:00:42;;;;;;;6.70;4.30;;;;;;;;;;5012985;28;20679;-85
2021/09/20 14:03:46;;;;;;;8.90;4.13;;;;;;;;;;5001983;28;20177;-84
2021/09/20 14:06:50;;;;;;;5.93;3.50;;;;;;;;;;5012672;28;20238;-84
2021/09/20 14:09:54;;;;;;;7.37;3.60;;;;;;;;;;5024185;28;20520;-84
2021/09/20 14:12:58;;;;;;;4.20;3.20;;;;;;;;;;5014064;28;20513;-85
2021/09/20 14:16:02;;;;;;;3.93;3.50;;;;;;;;;;5002426;28;20176;-85
2021/09/20 14:19:06;;;;;;;5.87;2.97;;;;;;;;;;5012094;28;20201;-84
2021/09/20 14:22:11;;;;;;;4.57;3.40;;;;;;;;;;5011487;28;20694;-84
2021/09/20 14:25:17;;;;;;;8.20;3.50;;;;;;;;;;5001029;28;20180;-85
2021/09/20 14:28:21;;;;;;;4.47;3.30;;;;;;;;;;5035734;28;20173;-85
2021/09/20 14:31:26;;;;;;;6.80;5.07;;;;;;;;;;5000453;28;20232;-85
2021/09/20 14:34:30;;;;;;;6.80;5.57;;;;;;;;;;5000913;28;20651;-84
2021/09/20 14:37:38;;;;;;;7.57;4.60;;;;;;;;;;5013363;28;20181;-85
2021/09/20 14:40:42;;;;;;;6.73;3.30;;;;;;;;;;5024379;28;20213;-84
2021/09/20 14:43:46;;;;;;;4.30;3.83;;;;;;;;;;5023689;28;20185;-85
2021/09/20 14:46:51;;;;;;;4.00;3.60;;;;;;;;;;5012519;28;20651;-85
2021/09/20 14:49:55;;;;;;;5.10;3.90;;;;;;;;;;5014401;28;20204;-84
2021/09/20 14:52:59;;;;;;;6.87;3.70;;;;;;;;;;5012300;28;20512;-84
2021/09/20 14:56:04;;;;;;;4.23;3.70;;;;;;;;;;5023135;28;20185;-85
2021/09/20 14:59:08;;;;;;;4.90;3.97;;;;;;;;;;5034226;28;20654;-85
2021/09/20 15:02:13;;;;;;;12.00;4.10;;;;;;;;;;5010696;28;20216;-86
2021/09/20 15:05:19;;;;;;;5.60;3.60;;;;;;;;;;5010322;28;20172;-87
2021/09/20 15:08:23;;;;;;;5.03;3.10;;;;;;;;;;4999319;28;20534;-87
2021/09/20 15:11:27;;;;;;;4.30;3.37;;;;;;;;;;5010818;28;20216;-84
2021/09/20 15:14:31;;;;;;;3.87;3.47;;;;;;;;;;5022341;28;20215;-84
2021/09/20 15:17:36;;;;;;;6.57;3.77;;;;;;;;;;5010886;28;20177;-84
2021/09/20 15:20:41;;;;;;;5.07;3.53;;;;;;;;;;5023054;28;20216;-85
2021/09/20 15:23:45;;;;;;;5.57;3.63;;;;;;;;;;5022974;28;20185;-85
2021/09/20 15:26:49;;;;;;;4.03;3.43;;;;;;;;;;5012234;28;20659;-85
2021/09/20 15:29:54;;;;;;;5.07;4.03;;;;;;;;;;5020547;28;20181;-85
2021/09/20 15:32:58;;;;;;;6.57;3.80;;;;;;;;;;4999528;28;20181;-86
2021/09/20 15:36:06;;;;;;;16.73;4.37;;;;;;;;;;5021807;28;20632;-85
2021/09/20 15:39:10;;;;;;;8.53;3.70;;;;;;;;;;4999674;28;20185;-84
2021/09/20 15:42:14;;;;;;;6.03;4.00;;;;;;;;;;5010857;28;20216;-85
2021/09/20 15:45:21;;;;;;;4.40;4.00;;;;;;;;;;5046413;28;20207;-84
2021/09/20 15:48:25;;;;;;;6.17;4.17;;;;;;;;;;5041188;28;20224;-84
2021/09/20 15:51:29;;;;;;;5.60;3.90;;;;;;;;;;5035047;28;20227;-84
2021/09/20 15:54:34;;;;;;;6.20;3.70;;;;;;;;;;5020409;28;20184;-84
2021/09/20 15:57:39;;;;;;;28.13;5.17;;;;;;;;;;5023584;28;20585;-84
2021/09/20 16:00:43;;;;;;;6.07;4.10;;;;;;;;;;5024461;28;20220;-83
2021/09/20 16:03:46;;;;;;;4.33;3.60;;;;;;;;;;5004574;28;20200;-83
2021/09/20 16:06:51;;;;;;;4.20;3.80;;;;;;;;;;5011805;28;20205;-84
2021/09/20 16:09:55;;;;;;;4.50;3.63;;;;;;;;;;5012162;28;20192;-83
2021/09/20 16:12:59;;;;;;;4.17;3.57;;;;;;;;;;5023287;28;20196;-83
2021/09/20 16:16:03;;;;;;;8.03;4.03;;;;;;;;;;5026965;28;20188;-86
2021/09/20 16:19:07;;;;;;;22.53;6.03;;;;;;;;;;5044260;28;20524;-84
2021/09/20 16:22:12;;;;;;;10.00;4.17;;;;;;;;;;5032680;28;20224;-85
2021/09/20 16:25:18;;;;;;;6.87;3.87;;;;;;;;;;5031617;28;20654;-84
2021/09/20 16:28:23;;;;;;;7.67;3.93;;;;;;;;;;5019582;28;20211;-84
2021/09/20 16:31:27;;;;;;;10.97;4.27;;;;;;;;;;5022791;28;20232;-85
2021/09/20 16:34:33;;;;;;;5.83;3.93;;;;;;;;;;5001451;28;20206;-84
2021/09/20 16:37:39;;;;;;;9.10;4.00;;;;;;;;;;5024131;28;20197;-84
2021/09/20 16:40:43;;;;;;;5.53;4.57;;;;;;;;;;5012570;28;20220;-84
2021/09/20 16:43:47;;;;;;;6.93;5.03;;;;;;;;;;5014934;28;20196;-85
2021/09/20 16:46:51;;;;;;;9.13;5.20;;;;;;;;;;5001856;28;20217;-86
2021/09/20 16:49:55;;;;;;;6.87;5.40;;;;;;;;;;5020063;28;20207;-84
2021/09/20 16:52:59;;;;;;;9.10;6.50;;;;;;;;;;5013704;28;20192;-84
2021/09/20 16:56:06;;;;;;;8.33;5.83;;;;;;;;;;5044872;28;20184;-84
2021/09/20 16:59:11;;;;;;;7.03;5.60;;;;;;;;;;5032681;28;20540;-84
2021/09/20 17:02:15;;;;;;;6.53;5.03;;;;;;;;;;5003319;28;20217;-85
2021/09/20 17:05:20;;;;;;;6.97;4.97;;;;;;;;;;5024038;28;20517;-85
2021/09/20 17:08:25;;;;;;;12.93;5.40;;;;;;;;;;5012933;28;20209;-85
2021/09/20 17:11:30;;;;;;;18.20;6.03;;;;;;;;;;5016824;28;20765;-85
2021/09/20 17:14:36;;;;;;;16.77;5.13;;;;;;;;;;5038031;28;20192;-85
2021/09/20 17:17:41;;;;;;;11.53;6.27;;;;;;;;;;5025056;28;20675;-85
2021/09/20 17:20:46;;;;;;;9.60;5.77;;;;;;;;;;5030126;28;20216;-85
2021/09/20 17:23:51;;;;;;;8.10;5.20;;;;;;;;;;5028204;28;20192;-84
2021/09/20 17:26:55;;;;;;;6.63;5.20;;;;;;;;;;5031188;28;20212;-85
2021/09/20 17:29:59;;;;;;;22.63;6.13;;;;;;;;;;5001473;28;20184;-85
2021/09/20 17:33:04;;;;;;;12.47;6.30;;;;;;;;;;5012376;28;20176;-84
2021/09/20 17:36:09;;;;;;;8.37;5.90;;;;;;;;;;5011914;28;20181;-85
2021/09/20 17:39:13;;;;;;;9.60;5.50;;;;;;;;;;5034887;28;20169;-84
2021/09/20 17:42:17;;;;;;;9.10;5.23;;;;;;;;;;5027371;28;20223;-84
2021/09/20 17:45:22;;;;;;;7.80;6.00;;;;;;;;;;5023502;28;20204;-85
2021/09/20 17:48:26;;;;;;;7.90;6.00;;;;;;;;;;4998569;28;20687;-85
2021/09/20 17:51:31;;;;;;;7.57;5.93;;;;;;;;;;5021075;28;20224;-85
2021/09/20 17:54:35;;;;;;;9.00;5.87;;;;;;;;;;5021435;28;20185;-85
2021/09/20 17:57:40;;;;;;;7.57;6.20;;;;;;;;;;5012519;28;20180;-86
2021/09/20 18:00:44;;;;;;;9.17;6.50;;;;;;;;;;5001183;28;20461;-86
2021/09/20 18:03:48;;;;;;;8.27;6.53;;;;;;;;;;5011770;28;20517;-85
2021/09/20 18:06:52;;;;;;;8.17;6.10;;;;;;;;;;5010647;28;20188;-85
2021/09/20 18:09:56;;;;;;;7.33;6.20;;;;;;;;;;4999337;28;20200;-85
2021/09/20 18:13:02;;;;;;;9.00;5.60;;;;;;;;;;5008480;28;20582;-85
2021/09/20 18:16:07;;;;;;;9.20;5.47;;;;;;;;;;4998423;28;20185;-85
2021/09/20 18:19:13;;;;;;;8.07;5.67;;;;;;;;;;5021368;28;20193;-84